Pagina principală
METAR-TAF:

METAR-TAF

Aeroporturi :

Hutchinson, Kansas, Statele Unite ale Americii

Latitudine: 38-04-05N, longitudine: 097-51-38W, elevație: 470 m

Observații meteo curente

Raportul a fost făcut în urmă cu 20 de minute, la 00:52 UTC
Vânt 5 kt de la Nord
Temperatură 21°C
Umiditate 53%
Presiune 1008 hPa
Vizibilitate: 16.1 km
Cer senin

METAR: KHUT 220052Z 36005KT 10SM CLR 21/11 A2978 RMK AO2 SLP063 T02060111

Ora: 20:12 (01:12 UTC)

Prognoză

Raportul a fost făcut în urmă cu 1 oră și 33 de minute, la 23:39 UTC
Prognoză valabilă de la 22 ora 00 UTC la 22 ora 24 UTC
Vânt 9 kt de la Nord
Vizibilitate: 10 km
Nori puțini la o înălțime de 5000 picior
De la 22 ora 1800 UTC
Vânt 5 kt din direcții variabile
Vizibilitate: 10 km
Cer senin

TAF: KHUT 212339Z 2200/2224 35009KT P6SM FEW050 FM221800 VRB05KT P6SM SKC

Observații și prognoze meteo pentru peste 4.000 de aeroporturi (rapoarte METAR și TAF).

Stațiile disponibile sunt reprezentate pe hartă prin puncte galbene și roșii.

Țineți indicatorul mouse-ului pe punctul dorit pentru a vedea denumirea stației.

Apoi, faceți clic pentru a vedea observațiile și prognozele meteorologice.

Pentru a schimba harta: Pentru mărire, faceți clic pe butoanele verzi cu cruce neagră; pentru micșorare, pe butonul verde cu o liniuță; pentru hărți învecinate, pe săgețile verzi.


METAR-TAF: